sensor_id;sensor_type;location;lat;lon;timestamp;pressure;altitude;pressure_sealevel;temperature;humidity
18900;BME280;9582;52.018;6.306;2023-09-18T00:01:50;101216.84;;;18.26;100.00
18900;BME280;9582;52.018;6.306;2023-09-18T00:04:17;101208.13;;;18.24;100.00
18900;BME280;9582;52.018;6.306;2023-09-18T00:06:43;101206.34;;;18.24;100.00
18900;BME280;9582;52.018;6.306;2023-09-18T00:09:10;101200.31;;;18.22;100.00
18900;BME280;9582;52.018;6.306;2023-09-18T00:11:39;101198.81;;;18.18;100.00
18900;BME280;9582;52.018;6.306;2023-09-18T00:14:07;101195.44;;;18.16;100.00
18900;BME280;9582;52.018;6.306;2023-09-18T00:16:35;101200.00;;;18.14;100.00
18900;BME280;9582;52.018;6.306;2023-09-18T00:19:01;101193.88;;;18.14;100.00
18900;BME280;9582;52.018;6.306;2023-09-18T00:21:28;101192.16;;;18.13;100.00
18900;BME280;9582;52.018;6.306;2023-09-18T00:23:55;101188.66;;;18.12;100.00
18900;BME280;9582;52.018;6.306;2023-09-18T00:26:22;101174.69;;;18.10;100.00
18900;BME280;9582;52.018;6.306;2023-09-18T00:28:51;101169.31;;;18.12;100.00
18900;BME280;9582;52.018;6.306;2023-09-18T00:31:19;101165.81;;;18.11;100.00
18900;BME280;9582;52.018;6.306;2023-09-18T00:33:46;101158.94;;;18.09;100.00
18900;BME280;9582;52.018;6.306;2023-09-18T00:36:13;101144.84;;;18.08;100.00
18900;BME280;9582;52.018;6.306;2023-09-18T00:38:39;101142.09;;;18.10;100.00
18900;BME280;9582;52.018;6.306;2023-09-18T00:41:06;101128.75;;;18.11;100.00
18900;BME280;9582;52.018;6.306;2023-09-18T00:43:32;101132.13;;;18.13;100.00
18900;BME280;9582;52.018;6.306;2023-09-18T00:46:00;101144.44;;;18.14;100.00
18900;BME280;9582;52.018;6.306;2023-09-18T00:48:28;101132.13;;;18.13;100.00
18900;BME280;9582;52.018;6.306;2023-09-18T00:50:55;101139.22;;;18.13;100.00
18900;BME280;9582;52.018;6.306;2023-09-18T00:53:23;101127.78;;;18.12;100.00
18900;BME280;9582;52.018;6.306;2023-09-18T00:55:53;101118.91;;;18.13;100.00
18900;BME280;9582;52.018;6.306;2023-09-18T00:58:21;101106.75;;;18.11;100.00
18900;BME280;9582;52.018;6.306;2023-09-18T01:00:48;101104.09;;;18.11;100.00
18900;BME280;9582;52.018;6.306;2023-09-18T01:03:16;101106.75;;;18.11;100.00
18900;BME280;9582;52.018;6.306;2023-09-18T01:05:45;101102.53;;;18.08;100.00
18900;BME280;9582;52.018;6.306;2023-09-18T01:08:11;101100.81;;;18.07;100.00
18900;BME280;9582;52.018;6.306;2023-09-18T01:10:42;101098.06;;;18.09;100.00
18900;BME280;9582;52.018;6.306;2023-09-18T01:13:15;101096.25;;;18.09;100.00
18900;BME280;9582;52.018;6.306;2023-09-18T01:15:51;101089.16;;;18.10;100.00
18900;BME280;9582;52.018;6.306;2023-09-18T01:18:18;101077.84;;;18.08;100.00
18900;BME280;9582;52.018;6.306;2023-09-18T01:20:46;101071.72;;;18.07;100.00
18900;BME280;9582;52.018;6.306;2023-09-18T01:23:14;101063.97;;;18.04;100.00
18900;BME280;9582;52.018;6.306;2023-09-18T01:25:40;101064.09;;;18.03;100.00
18900;BME280;9582;52.018;6.306;2023-09-18T01:28:07;101051.94;;;18.00;100.00
18900;BME280;9582;52.018;6.306;2023-09-18T01:30:34;101047.72;;;17.98;100.00
18900;BME280;9582;52.018;6.306;2023-09-18T01:33:01;101046.03;;;17.97;100.00
18900;BME280;9582;52.018;6.306;2023-09-18T01:35:30;101047.81;;;17.96;100.00
18900;BME280;9582;52.018;6.306;2023-09-18T01:37:59;101041.59;;;17.97;100.00
18900;BME280;9582;52.018;6.306;2023-09-18T01:40:27;101039.88;;;17.96;100.00
18900;BME280;9582;52.018;6.306;2023-09-18T01:42:53;101027.38;;;17.98;100.00
18900;BME280;9582;52.018;6.306;2023-09-18T01:45:20;101020.19;;;18.00;100.00
18900;BME280;9582;52.018;6.306;2023-09-18T01:47:47;101010.56;;;17.99;100.00
18900;BME280;9582;52.018;6.306;2023-09-18T01:50:13;101009.63;;;18.00;100.00
18900;BME280;9582;52.018;6.306;2023-09-18T01:52:40;100999.53;;;18.05;100.00
18900;BME280;9582;52.018;6.306;2023-09-18T01:55:08;101009.91;;;18.08;100.00
18900;BME280;9582;52.018;6.306;2023-09-18T01:57:36;101005.31;;;18.10;100.00
18900;BME280;9582;52.018;6.306;2023-09-18T02:00:03;100989.56;;;18.09;100.00
18900;BME280;9582;52.018;6.306;2023-09-18T02:02:37;101002.69;;;18.10;100.00
18900;BME280;9582;52.018;6.306;2023-09-18T02:05:05;101003.63;;;18.09;100.00
18900;BME280;9582;52.018;6.306;2023-09-18T02:07:31;101007.25;;;18.08;100.00
18900;BME280;9582;52.018;6.306;2023-09-18T02:09:58;101005.44;;;18.09;100.00
18900;BME280;9582;52.018;6.306;2023-09-18T02:12:24;100995.81;;;18.08;100.00
18900;BME280;9582;52.018;6.306;2023-09-18T02:14:53;100997.59;;;18.07;100.00
18900;BME280;9582;52.018;6.306;2023-09-18T02:17:22;100997.75;;;18.06;100.00
18900;BME280;9582;52.018;6.306;2023-09-18T02:19:48;100995.81;;;18.08;100.00
18900;BME280;9582;52.018;6.306;2023-09-18T02:22:15;100989.66;;;18.07;100.00
18900;BME280;9582;52.018;6.306;2023-09-18T02:24:41;100991.38;;;18.08;100.00
18900;BME280;9582;52.018;6.306;2023-09-18T02:27:08;100989.66;;;18.07;100.00
18900;BME280;9582;52.018;6.306;2023-09-18T02:29:36;100982.44;;;18.09;100.00
18900;BME280;9582;52.018;6.306;2023-09-18T02:32:05;100978.88;;;18.10;100.00
18900;BME280;9582;52.018;6.306;2023-09-18T02:34:31;100975.03;;;18.14;100.00
18900;BME280;9582;52.018;6.306;2023-09-18T02:36:58;100963.47;;;18.15;100.00
18900;BME280;9582;52.018;6.306;2023-09-18T02:39:25;100963.38;;;18.17;100.00
18900;BME280;9582;52.018;6.306;2023-09-18T02:41:51;100950.88;;;18.19;100.00
18900;BME280;9582;52.018;6.306;2023-09-18T02:44:18;100946.31;;;18.21;100.00
18900;BME280;9582;52.018;6.306;2023-09-18T02:46:44;100941.75;;;18.23;100.00
18900;BME280;9582;52.018;6.306;2023-09-18T02:49:13;100932.84;;;18.24;100.00
18900;BME280;9582;52.018;6.306;2023-09-18T02:51:40;100923.09;;;18.24;100.00
18900;BME280;9582;52.018;6.306;2023-09-18T02:54:06;100909.78;;;18.26;100.00
18900;BME280;9582;52.018;6.306;2023-09-18T02:56:33;100912.28;;;18.27;100.00
18900;BME280;9582;52.018;6.306;2023-09-18T02:58:59;100899.91;;;18.28;100.00
18900;BME280;9582;52.018;6.306;2023-09-18T03:01:26;100900.38;;;18.33;100.00
18900;BME280;9582;52.018;6.306;2023-09-18T03:03:52;100888.63;;;18.37;100.00
18900;BME280;9582;52.018;6.306;2023-09-18T03:06:20;100883.91;;;18.40;100.00
18900;BME280;9582;52.018;6.306;2023-09-18T03:08:47;100869.50;;;18.44;100.00
18900;BME280;9582;52.018;6.306;2023-09-18T03:11:14;100871.91;;;18.48;100.00
18900;BME280;9582;52.018;6.306;2023-09-18T03:13:43;100865.56;;;18.50;100.00
18900;BME280;9582;52.018;6.306;2023-09-18T03:16:11;100852.19;;;18.52;100.00
18900;BME280;9582;52.018;6.306;2023-09-18T03:18:38;100850.28;;;18.54;100.00
18900;BME280;9582;52.018;6.306;2023-09-18T03:21:04;100848.34;;;18.56;100.00
18900;BME280;9582;52.018;6.306;2023-09-18T03:23:32;100836.69;;;18.58;100.00
18900;BME280;9582;52.018;6.306;2023-09-18T03:25:59;100832.22;;;18.59;100.00
18900;BME280;9582;52.018;6.306;2023-09-18T03:28:26;100829.34;;;18.62;100.00
18900;BME280;9582;52.018;6.306;2023-09-18T03:30:52;100824.91;;;18.62;100.00
18900;BME280;9582;52.018;6.306;2023-09-18T03:33:22;100819.72;;;18.61;100.00
18900;BME280;9582;52.018;6.306;2023-09-18T03:35:49;100816.97;;;18.62;100.00
18900;BME280;9582;52.018;6.306;2023-09-18T03:38:20;100823.09;;;18.63;100.00
18900;BME280;9582;52.018;6.306;2023-09-18T03:40:48;100812.50;;;18.63;100.00
18900;BME280;9582;52.018;6.306;2023-09-18T03:43:15;100818.84;;;18.60;100.00
18900;BME280;9582;52.018;6.306;2023-09-18T03:45:42;100817.06;;;18.61;100.00
18900;BME280;9582;52.018;6.306;2023-09-18T03:48:09;100819.59;;;18.62;100.00
18900;BME280;9582;52.018;6.306;2023-09-18T03:50:35;100823.09;;;18.63;100.00
18900;BME280;9582;52.018;6.306;2023-09-18T03:53:02;100816.81;;;18.64;100.00
18900;BME280;9582;52.018;6.306;2023-09-18T03:55:29;100830.31;;;18.61;100.00
18900;BME280;9582;52.018;6.306;2023-09-18T03:57:57;100832.34;;;18.57;100.00
18900;BME280;9582;52.018;6.306;2023-09-18T04:00:26;100834.16;;;18.57;100.00
18900;BME280;9582;52.018;6.306;2023-09-18T04:02:53;100835.84;;;18.58;100.00
18900;BME280;9582;52.018;6.306;2023-09-18T04:05:20;100838.63;;;18.56;100.00
18900;BME280;9582;52.018;6.306;2023-09-18T04:07:46;100841.13;;;18.58;100.00
18900;BME280;9582;52.018;6.306;2023-09-18T04:10:14;100846.19;;;18.61;100.00
18900;BME280;9582;52.018;6.306;2023-09-18T04:12:44;100839.00;;;18.63;100.00
18900;BME280;9582;52.018;6.306;2023-09-18T04:15:14;100846.66;;;18.66;100.00
18900;BME280;9582;52.018;6.306;2023-09-18T04:17:42;100851.03;;;18.67;100.00
18900;BME280;9582;52.018;6.306;2023-09-18T04:20:09;100855.13;;;18.71;100.00
18900;BME280;9582;52.018;6.306;2023-09-18T04:22:36;100853.91;;;18.75;100.00
18900;BME280;9582;52.018;6.306;2023-09-18T04:25:05;100854.66;;;18.77;100.00
18900;BME280;9582;52.018;6.306;2023-09-18T04:27:32;100856.22;;;18.79;100.00
18900;BME280;9582;52.018;6.306;2023-09-18T04:29:58;100855.13;;;18.82;100.00
18900;BME280;9582;52.018;6.306;2023-09-18T04:32:28;100855.00;;;18.83;100.00
18900;BME280;9582;52.018;6.306;2023-09-18T04:34:56;100851.41;;;18.84;100.00
18900;BME280;9582;52.018;6.306;2023-09-18T04:37:22;100845.84;;;18.87;100.00
18900;BME280;9582;52.018;6.306;2023-09-18T04:39:49;100846.69;;;18.88;100.00
18900;BME280;9582;52.018;6.306;2023-09-18T04:42:15;100832.47;;;18.89;100.00
18900;BME280;9582;52.018;6.306;2023-09-18T04:44:42;100827.91;;;18.91;100.00
18900;BME280;9582;52.018;6.306;2023-09-18T04:47:09;100827.78;;;18.92;100.00
18900;BME280;9582;52.018;6.306;2023-09-18T04:49:37;100823.44;;;18.91;100.00
18900;BME280;9582;52.018;6.306;2023-09-18T04:52:04;100814.66;;;18.91;100.00
18900;BME280;9582;52.018;6.306;2023-09-18T04:54:31;100819.97;;;18.91;100.00
18900;BME280;9582;52.018;6.306;2023-09-18T04:56:57;100818.75;;;18.95;100.00
18900;BME280;9582;52.018;6.306;2023-09-18T04:59:24;100812.50;;;18.96;100.00
18900;BME280;9582;52.018;6.306;2023-09-18T05:01:51;100805.25;;;18.98;100.00
18900;BME280;9582;52.018;6.306;2023-09-18T05:04:17;100804.28;;;18.99;100.00
18900;BME280;9582;52.018;6.306;2023-09-18T05:06:45;100799.81;;;18.99;100.00
18900;BME280;9582;52.018;6.306;2023-09-18T05:09:12;100790.91;;;19.00;100.00
18900;BME280;9582;52.018;6.306;2023-09-18T05:11:40;100802.22;;;19.02;100.00
18900;BME280;9582;52.018;6.306;2023-09-18T05:14:07;100819.97;;;19.02;100.00
18900;BME280;9582;52.018;6.306;2023-09-18T05:16:33;100847.88;;;19.06;100.00
18900;BME280;9582;52.018;6.306;2023-09-18T05:19:00;100838.72;;;19.10;100.00
18900;BME280;9582;52.018;6.306;2023-09-18T05:21:27;100840.16;;;19.14;100.00
18900;BME280;9582;52.018;6.306;2023-09-18T05:23:55;100835.06;;;19.22;100.00
18900;BME280;9582;52.018;6.306;2023-09-18T05:26:21;100822.44;;;19.26;100.00
18900;BME280;9582;52.018;6.306;2023-09-18T05:28:49;100841.00;;;19.26;100.00
18900;BME280;9582;52.018;6.306;2023-09-18T05:31:16;100845.34;;;19.27;100.00
18900;BME280;9582;52.018;6.306;2023-09-18T05:33:43;100844.09;;;19.31;100.00
18900;BME280;9582;52.018;6.306;2023-09-18T05:36:09;100849.06;;;19.35;100.00
18900;BME280;9582;52.018;6.306;2023-09-18T05:38:36;100856.03;;;19.36;100.00
18900;BME280;9582;52.018;6.306;2023-09-18T05:41:04;100851.50;;;19.38;100.00
18900;BME280;9582;52.018;6.306;2023-09-18T05:43:31;100861.31;;;19.36;100.00
18900;BME280;9582;52.018;6.306;2023-09-18T05:45:57;100866.78;;;19.35;100.00
18900;BME280;9582;52.018;6.306;2023-09-18T05:48:24;100879.19;;;19.34;100.00
18900;BME280;9582;52.018;6.306;2023-09-18T05:50:51;100875.56;;;19.35;100.00
18900;BME280;9582;52.018;6.306;2023-09-18T05:53:19;100886.19;;;19.35;100.00
18900;BME280;9582;52.018;6.306;2023-09-18T05:55:45;100878.22;;;19.35;100.00
18900;BME280;9582;52.018;6.306;2023-09-18T05:58:13;100893.16;;;19.36;100.00
18900;BME280;9582;52.018;6.306;2023-09-18T06:00:39;100903.75;;;19.36;100.00
18900;BME280;9582;52.018;6.306;2023-09-18T06:03:06;100921.59;;;19.34;100.00
18900;BME280;9582;52.018;6.306;2023-09-18T06:05:36;100918.09;;;19.34;100.00
18900;BME280;9582;52.018;6.306;2023-09-18T06:08:03;100915.59;;;19.32;100.00
18900;BME280;9582;52.018;6.306;2023-09-18T06:10:30;100908.72;;;19.30;100.00
18900;BME280;9582;52.018;6.306;2023-09-18T06:12:57;100913.19;;;19.29;100.00
18900;BME280;9582;52.018;6.306;2023-09-18T06:15:30;100913.19;;;19.29;100.00
18900;BME280;9582;52.018;6.306;2023-09-18T06:17:57;100907.88;;;19.29;100.00
18900;BME280;9582;52.018;6.306;2023-09-18T06:20:23;100911.00;;;19.34;100.00
18900;BME280;9582;52.018;6.306;2023-09-18T06:22:50;100904.59;;;19.37;100.00
18900;BME280;9582;52.018;6.306;2023-09-18T06:25:16;100901.94;;;19.37;100.00
18900;BME280;9582;52.018;6.306;2023-09-18T06:27:43;100907.19;;;19.38;100.00
18900;BME280;9582;52.018;6.306;2023-09-18T06:30:10;100898.25;;;19.39;100.00
18900;BME280;9582;52.018;6.306;2023-09-18T06:32:38;100886.53;;;19.42;100.00
18900;BME280;9582;52.018;6.306;2023-09-18T06:35:05;100883.78;;;19.43;100.00
18900;BME280;9582;52.018;6.306;2023-09-18T06:37:31;100869.28;;;19.47;100.00
18900;BME280;9582;52.018;6.306;2023-09-18T06:39:58;100867.47;;;19.48;100.00
18900;BME280;9582;52.018;6.306;2023-09-18T06:42:24;100865.69;;;19.48;100.00
18900;BME280;9582;52.018;6.306;2023-09-18T06:44:57;100861.94;;;19.51;100.00
18900;BME280;9582;52.018;6.306;2023-09-18T06:47:23;100869.03;;;19.50;100.00
18900;BME280;9582;52.018;6.306;2023-09-18T06:49:51;100878.69;;;19.51;100.00
18900;BME280;9582;52.018;6.306;2023-09-18T06:52:18;100890.25;;;19.50;100.00
18900;BME280;9582;52.018;6.306;2023-09-18T06:54:44;100892.19;;;19.48;100.00
18900;BME280;9582;52.018;6.306;2023-09-18T06:57:11;100892.91;;;19.50;100.00
18900;BME280;9582;52.018;6.306;2023-09-18T06:59:37;100884.84;;;19.52;100.00
18900;BME280;9582;52.018;6.306;2023-09-18T07:02:04;100899.91;;;19.51;100.00
18900;BME280;9582;52.018;6.306;2023-09-18T07:04:30;100898.22;;;19.50;100.00
18900;BME280;9582;52.018;6.306;2023-09-18T07:06:58;100910.53;;;19.51;100.00
18900;BME280;9582;52.018;6.306;2023-09-18T07:09:24;100915.81;;;19.51;100.00
18900;BME280;9582;52.018;6.306;2023-09-18T07:11:51;100920.19;;;19.52;100.00
18900;BME280;9582;52.018;6.306;2023-09-18T07:14:18;100917.63;;;19.51;100.00
18900;BME280;9582;52.018;6.306;2023-09-18T07:16:44;100919.34;;;19.52;100.00
18900;BME280;9582;52.018;6.306;2023-09-18T07:19:11;100916.53;;;19.53;100.00
18900;BME280;9582;52.018;6.306;2023-09-18T07:21:42;100929.69;;;19.55;100.00
18900;BME280;9582;52.018;6.306;2023-09-18T07:24:10;100926.19;;;19.54;100.00
18900;BME280;9582;52.018;6.306;2023-09-18T07:26:43;100935.59;;;19.58;100.00
18900;BME280;9582;52.018;6.306;2023-09-18T07:29:10;100946.06;;;19.60;100.00
18900;BME280;9582;52.018;6.306;2023-09-18T07:31:36;100944.28;;;19.61;100.00
18900;BME280;9582;52.018;6.306;2023-09-18T07:34:03;100939.81;;;19.61;100.00
18900;BME280;9582;52.018;6.306;2023-09-18T07:36:30;100941.63;;;19.61;100.00
18900;BME280;9582;52.018;6.306;2023-09-18T07:38:56;100957.28;;;19.64;100.00
18900;BME280;9582;52.018;6.306;2023-09-18T07:41:24;100956.44;;;19.63;100.00
18900;BME280;9582;52.018;6.306;2023-09-18T07:43:50;100964.16;;;19.66;100.00
18900;BME280;9582;52.018;6.306;2023-09-18T07:46:17;100965.00;;;19.67;100.00
18900;BME280;9582;52.018;6.306;2023-09-18T07:48:43;100978.28;;;19.67;100.00
18900;BME280;9582;52.018;6.306;2023-09-18T07:51:10;100982.50;;;19.69;100.00
18900;BME280;9582;52.018;6.306;2023-09-18T07:53:37;101002.38;;;19.75;100.00
18900;BME280;9582;52.018;6.306;2023-09-18T07:56:03;100996.59;;;19.81;100.00
18900;BME280;9582;52.018;6.306;2023-09-18T07:58:31;100987.84;;;19.90;100.00
18900;BME280;9582;52.018;6.306;2023-09-18T08:00:59;101000.78;;;19.94;100.00
18900;BME280;9582;52.018;6.306;2023-09-18T08:03:26;101021.63;;;19.99;100.00
18900;BME280;9582;52.018;6.306;2023-09-18T08:05:53;101029.59;;;19.99;100.00
18900;BME280;9582;52.018;6.306;2023-09-18T08:08:21;101025.97;;;20.00;100.00
18900;BME280;9582;52.018;6.306;2023-09-18T08:10:48;101040.34;;;19.97;100.00
18900;BME280;9582;52.018;6.306;2023-09-18T08:13:15;101053.72;;;19.96;100.00
18900;BME280;9582;52.018;6.306;2023-09-18T08:15:43;101064.09;;;19.99;100.00
18900;BME280;9582;52.018;6.306;2023-09-18T08:18:10;101077.13;;;20.02;100.00
18900;BME280;9582;52.018;6.306;2023-09-18T08:20:40;101088.47;;;20.04;100.00
18900;BME280;9582;52.018;6.306;2023-09-18T08:23:08;101085.09;;;20.02;100.00
18900;BME280;9582;52.018;6.306;2023-09-18T08:25:34;101094.03;;;20.01;100.00
18900;BME280;9582;52.018;6.306;2023-09-18T08:28:01;101092.34;;;20.00;100.00
18900;BME280;9582;52.018;6.306;2023-09-18T08:30:28;101100.16;;;20.01;100.00
18900;BME280;9582;52.018;6.306;2023-09-18T08:32:56;101111.28;;;20.06;100.00
18900;BME280;9582;52.018;6.306;2023-09-18T08:35:22;101097.16;;;20.17;100.00
18900;BME280;9582;52.018;6.306;2023-09-18T08:37:54;101105.13;;;20.28;100.00
18900;BME280;9582;52.018;6.306;2023-09-18T08:40:22;101117.66;;;20.37;100.00
18900;BME280;9582;52.018;6.306;2023-09-18T08:42:52;101130.72;;;20.40;100.00
18900;BME280;9582;52.018;6.306;2023-09-18T08:45:25;101131.16;;;20.45;100.00
18900;BME280;9582;52.018;6.306;2023-09-18T08:47:54;101142.97;;;20.52;100.00
18900;BME280;9582;52.018;6.306;2023-09-18T08:50:22;101159.91;;;20.51;100.00
18900;BME280;9582;52.018;6.306;2023-09-18T08:52:50;101169.44;;;20.54;100.00
18900;BME280;9582;52.018;6.306;2023-09-18T08:55:17;101181.72;;;20.55;100.00
18900;BME280;9582;52.018;6.306;2023-09-18T08:57:44;101179.81;;;20.57;100.00
18900;BME280;9582;52.018;6.306;2023-09-18T09:00:13;101188.75;;;20.56;100.00
18900;BME280;9582;52.018;6.306;2023-09-18T09:02:42;101196.34;;;20.60;100.00
18900;BME280;9582;52.018;6.306;2023-09-18T09:05:09;101207.56;;;20.64;100.00
18900;BME280;9582;52.018;6.306;2023-09-18T09:07:37;101213.09;;;20.72;100.00
18900;BME280;9582;52.018;6.306;2023-09-18T09:10:03;101224.25;;;20.77;100.00
18900;BME280;9582;52.018;6.306;2023-09-18T09:12:53;101221.91;;;20.84;100.00
18900;BME280;9582;52.018;6.306;2023-09-18T09:15:21;101225.28;;;20.97;100.00
18900;BME280;9582;52.018;6.306;2023-09-18T09:17:49;101239.53;;;20.96;100.00
18900;BME280;9582;52.018;6.306;2023-09-18T09:20:16;101236.16;;;20.94;100.00
18900;BME280;9582;52.018;6.306;2023-09-18T09:22:45;101243.13;;;20.95;100.00
18900;BME280;9582;52.018;6.306;2023-09-18T09:25:22;101244.94;;;20.94;100.00
18900;BME280;9582;52.018;6.306;2023-09-18T09:27:49;101255.22;;;20.99;100.00
18900;BME280;9582;52.018;6.306;2023-09-18T09:30:19;101259.31;;;21.03;100.00
18900;BME280;9582;52.018;6.306;2023-09-18T09:32:47;101249.66;;;21.02;100.00
18900;BME280;9582;52.018;6.306;2023-09-18T09:35:19;101258.59;;;21.01;100.00
18900;BME280;9582;52.018;6.306;2023-09-18T09:37:48;101249.31;;;20.95;100.00
18900;BME280;9582;52.018;6.306;2023-09-18T09:40:16;101242.91;;;20.98;100.00
18900;BME280;9582;52.018;6.306;2023-09-18T09:42:42;101243.50;;;21.01;100.00
18900;BME280;9582;52.018;6.306;2023-09-18T09:45:14;101238.88;;;21.14;100.00
18900;BME280;9582;52.018;6.306;2023-09-18T09:47:40;101244.41;;;21.22;100.00
18900;BME280;9582;52.018;6.306;2023-09-18T09:50:08;101248.81;;;21.12;100.00
18900;BME280;9582;52.018;6.306;2023-09-18T09:52:40;101247.06;;;21.22;100.00
18900;BME280;9582;52.018;6.306;2023-09-18T09:55:19;101247.22;;;21.21;100.00
18900;BME280;9582;52.018;6.306;2023-09-18T09:57:47;101245.50;;;21.20;100.00
18900;BME280;9582;52.018;6.306;2023-09-18T10:00:14;101249.78;;;21.43;100.00
18900;BME280;9582;52.018;6.306;2023-09-18T10:02:50;101239.47;;;21.50;100.00
18900;BME280;9582;52.018;6.306;2023-09-18T10:05:18;101242.69;;;21.64;100.00
18900;BME280;9582;52.018;6.306;2023-09-18T10:07:45;101249.50;;;21.78;100.00
18900;BME280;9582;52.018;6.306;2023-09-18T10:10:12;101256.16;;;22.04;100.00
18900;BME280;9582;52.018;6.306;2023-09-18T10:12:41;101245.31;;;22.26;100.00
18900;BME280;9582;52.018;6.306;2023-09-18T10:15:08;101255.63;;;22.40;100.00
18900;BME280;9582;52.018;6.306;2023-09-18T10:17:36;101256.59;;;22.39;100.00
18900;BME280;9582;52.018;6.306;2023-09-18T10:20:12;101269.69;;;22.22;100.00
18900;BME280;9582;52.018;6.306;2023-09-18T10:22:45;101272.16;;;22.14;100.00
18900;BME280;9582;52.018;6.306;2023-09-18T10:25:14;101270.69;;;22.21;100.00
18900;BME280;9582;52.018;6.306;2023-09-18T10:27:46;101263.81;;;22.28;100.00
18900;BME280;9582;52.018;6.306;2023-09-18T10:30:15;101254.25;;;22.46;100.00
18900;BME280;9582;52.018;6.306;2023-09-18T10:32:44;101268.44;;;22.56;100.00
18900;BME280;9582;52.018;6.306;2023-09-18T10:35:13;101252.94;;;22.71;100.00
18900;BME280;9582;52.018;6.306;2023-09-18T10:37:41;101241.59;;;22.78;100.00
18900;BME280;9582;52.018;6.306;2023-09-18T10:40:09;101239.50;;;22.82;100.00
18900;BME280;9582;52.018;6.306;2023-09-18T10:42:37;101241.91;;;22.85;100.00
18900;BME280;9582;52.018;6.306;2023-09-18T10:45:07;101243.56;;;22.76;100.00
18900;BME280;9582;52.018;6.306;2023-09-18T10:47:36;101256.28;;;22.63;100.00
18900;BME280;9582;52.018;6.306;2023-09-18T10:50:03;101262.25;;;22.56;100.00
18900;BME280;9582;52.018;6.306;2023-09-18T10:52:30;101261.22;;;22.37;100.00
18900;BME280;9582;52.018;6.306;2023-09-18T10:54:56;101268.63;;;22.34;100.00
18900;BME280;9582;52.018;6.306;2023-09-18T10:57:23;101264.69;;;22.28;100.00
18900;BME280;9582;52.018;6.306;2023-09-18T10:59:49;101257.13;;;22.33;100.00
18900;BME280;9582;52.018;6.306;2023-09-18T11:02:17;101257.97;;;22.34;100.00
18900;BME280;9582;52.018;6.306;2023-09-18T11:04:45;101266.63;;;22.26;100.00
18900;BME280;9582;52.018;6.306;2023-09-18T11:07:19;101264.63;;;22.19;100.00
18900;BME280;9582;52.018;6.306;2023-09-18T11:09:46;101265.63;;;22.18;100.00
18900;BME280;9582;52.018;6.306;2023-09-18T11:12:15;101263.47;;;22.12;100.00
18900;BME280;9582;52.018;6.306;2023-09-18T11:14:47;101258.41;;;22.09;100.00
18900;BME280;9582;52.018;6.306;2023-09-18T11:17:35;101249.13;;;22.33;100.00
18900;BME280;9582;52.018;6.306;2023-09-18T11:20:09;101254.78;;;22.40;100.00
18900;BME280;9582;52.018;6.306;2023-09-18T11:22:38;101251.94;;;22.32;100.00
18900;BME280;9582;52.018;6.306;2023-09-18T11:25:36;101266.75;;;22.25;100.00
18900;BME280;9582;52.018;6.306;2023-09-18T11:28:04;101267.47;;;22.27;100.00
18900;BME280;9582;52.018;6.306;2023-09-18T11:30:33;101252.97;;;22.40;100.00
18900;BME280;9582;52.018;6.306;2023-09-18T11:33:03;101249.09;;;22.54;100.00
18900;BME280;9582;52.018;6.306;2023-09-18T11:35:31;101255.94;;;22.77;100.00
18900;BME280;9582;52.018;6.306;2023-09-18T11:38:05;101246.28;;;22.95;100.00
18900;BME280;9582;52.018;6.306;2023-09-18T11:40:33;101248.09;;;22.95;100.00
18900;BME280;9582;52.018;6.306;2023-09-18T11:43:23;101268.16;;;22.89;100.00
18900;BME280;9582;52.018;6.306;2023-09-18T11:45:55;101267.59;;;22.95;100.00
18900;BME280;9582;52.018;6.306;2023-09-18T11:48:25;101262.28;;;22.95;100.00
18900;BME280;9582;52.018;6.306;2023-09-18T11:50:53;101255.94;;;22.87;100.00
18900;BME280;9582;52.018;6.306;2023-09-18T11:53:20;101253.25;;;22.77;100.00
18900;BME280;9582;52.018;6.306;2023-09-18T11:55:47;101246.97;;;22.88;100.00
18900;BME280;9582;52.018;6.306;2023-09-18T11:58:14;101247.28;;;22.94;100.00
18900;BME280;9582;52.018;6.306;2023-09-18T12:00:41;101227.19;;;23.10;100.00
18900;BME280;9582;52.018;6.306;2023-09-18T12:03:17;101236.59;;;23.23;100.00
18900;BME280;9582;52.018;6.306;2023-09-18T12:05:54;101229.06;;;23.38;100.00
18900;BME280;9582;52.018;6.306;2023-09-18T12:08:22;101223.59;;;23.39;100.00
18900;BME280;9582;52.018;6.306;2023-09-18T12:10:49;101238.59;;;23.40;100.00
18900;BME280;9582;52.018;6.306;2023-09-18T12:13:16;101238.84;;;23.37;100.00
18900;BME280;9582;52.018;6.306;2023-09-18T12:15:43;101232.13;;;23.24;100.00
18900;BME280;9582;52.018;6.306;2023-09-18T12:18:10;101240.69;;;23.08;100.00
18900;BME280;9582;52.018;6.306;2023-09-18T12:20:44;101238.81;;;22.89;100.00
18900;BME280;9582;52.018;6.306;2023-09-18T12:23:12;101248.47;;;22.71;100.00
18900;BME280;9582;52.018;6.306;2023-09-18T12:25:39;101253.56;;;22.54;100.00
18900;BME280;9582;52.018;6.306;2023-09-18T12:28:06;101244.66;;;22.34;100.00
18900;BME280;9582;52.018;6.306;2023-09-18T12:30:34;101258.25;;;22.10;100.00
18900;BME280;9582;52.018;6.306;2023-09-18T12:33:00;101239.81;;;21.77;100.00
18900;BME280;9582;52.018;6.306;2023-09-18T12:35:29;101227.47;;;21.55;100.00
18900;BME280;9582;52.018;6.306;2023-09-18T12:37:57;101219.66;;;21.43;100.00
18900;BME280;9582;52.018;6.306;2023-09-18T12:40:26;101201.84;;;21.34;100.00
18900;BME280;9582;52.018;6.306;2023-09-18T12:42:54;101199.63;;;21.39;100.00
18900;BME280;9582;52.018;6.306;2023-09-18T12:45:21;101190.22;;;21.55;100.00
18900;BME280;9582;52.018;6.306;2023-09-18T12:47:48;101175.09;;;21.56;100.00
18900;BME280;9582;52.018;6.306;2023-09-18T12:50:15;101170.75;;;21.55;100.00
18900;BME280;9582;52.018;6.306;2023-09-18T12:52:42;101164.75;;;21.62;100.00
18900;BME280;9582;52.018;6.306;2023-09-18T12:55:08;101164.06;;;21.81;100.00